createdAt,value
2017-11-28T00:01:48.571Z,3.70
2017-11-28T00:04:15.332Z,2.20
2017-11-28T00:06:42.083Z,2.40
2017-11-28T00:09:08.700Z,2.30
2017-11-28T00:11:36.736Z,3.17
2017-11-28T00:14:03.577Z,2.37
2017-11-28T00:16:30.435Z,2.60
2017-11-28T00:18:57.542Z,3.10
2017-11-28T00:21:24.401Z,3.70
2017-11-28T00:23:51.168Z,3.97
2017-11-28T00:26:18.032Z,6.43
2017-11-28T00:28:44.740Z,4.10
2017-11-28T00:31:11.322Z,4.97
2017-11-28T00:33:37.914Z,2.87
2017-11-28T00:36:04.596Z,4.53
2017-11-28T00:38:32.148Z,3.73
2017-11-28T00:40:58.879Z,4.20
2017-11-28T00:43:25.531Z,2.93
2017-11-28T00:45:52.185Z,2.67
2017-11-28T00:48:19.005Z,2.10
2017-11-28T00:50:45.625Z,3.33
2017-11-28T00:53:12.383Z,2.23
2017-11-28T00:55:38.984Z,5.50
2017-11-28T00:58:05.612Z,1.70
2017-11-28T01:00:32.247Z,1.63
2017-11-28T01:02:58.906Z,2.73
2017-11-28T01:05:25.574Z,1.60
2017-11-28T01:07:52.284Z,3.53
2017-11-28T01:10:18.948Z,1.80
2017-11-28T01:12:45.583Z,1.80
2017-11-28T01:15:12.219Z,1.70
2017-11-28T01:17:38.802Z,1.33
2017-11-28T01:20:05.378Z,1.30
2017-11-28T01:22:31.961Z,1.43
2017-11-28T01:24:58.554Z,2.13
2017-11-28T01:27:25.129Z,1.63
2017-11-28T01:29:51.714Z,1.30
2017-11-28T01:32:18.336Z,2.20
2017-11-28T01:34:44.887Z,1.30
2017-11-28T01:37:11.468Z,1.60
2017-11-28T01:39:38.059Z,4.40
2017-11-28T01:42:04.633Z,3.70
2017-11-28T01:44:31.206Z,1.80
2017-11-28T01:46:57.786Z,4.53
2017-11-28T01:49:24.365Z,5.50
2017-11-28T01:51:50.957Z,4.40
2017-11-28T01:54:17.536Z,3.40
2017-11-28T01:56:44.118Z,5.87
2017-11-28T01:59:10.695Z,5.83
2017-11-28T02:01:37.275Z,5.30
2017-11-28T02:04:03.850Z,5.60
2017-11-28T02:06:30.430Z,5.77
2017-11-28T02:08:57.011Z,8.23
2017-11-28T02:11:23.594Z,6.73
2017-11-28T02:13:50.174Z,6.43
2017-11-28T02:16:16.754Z,5.60
2017-11-28T02:18:43.330Z,5.00
2017-11-28T02:21:09.910Z,6.43
2017-11-28T02:23:36.498Z,4.70
2017-11-28T02:26:03.075Z,5.23
2017-11-28T02:28:29.662Z,4.43
2017-11-28T02:30:56.260Z,13.37
2017-11-28T02:33:22.834Z,6.70
2017-11-28T02:35:49.406Z,5.03
2017-11-28T02:38:15.998Z,5.00
2017-11-28T02:40:48.312Z,4.70
2017-11-28T02:43:14.877Z,3.97
2017-11-28T02:45:41.472Z,3.77
2017-11-28T02:48:08.062Z,5.60
2017-11-28T02:50:34.639Z,5.60
2017-11-28T02:53:01.231Z,4.07
2017-11-28T02:55:29.542Z,4.40
2017-11-28T02:57:56.118Z,3.63
2017-11-28T03:00:22.712Z,3.10
2017-11-28T03:02:49.287Z,4.87
2017-11-28T03:05:15.866Z,3.40
2017-11-28T03:07:42.465Z,3.40
2017-11-28T03:10:09.883Z,3.23
2017-11-28T03:12:36.449Z,3.40
2017-11-28T03:15:05.794Z,3.20
2017-11-28T03:17:32.374Z,3.23
2017-11-28T03:19:59.858Z,4.93
2017-11-28T03:22:29.435Z,3.53
2017-11-28T03:24:58.755Z,3.60
2017-11-28T03:27:25.340Z,3.80
2017-11-28T03:29:52.635Z,4.20
2017-11-28T03:32:19.218Z,3.60
2017-11-28T03:34:45.795Z,4.00
2017-11-28T03:37:12.395Z,3.10
2017-11-28T03:39:38.989Z,2.77
2017-11-28T03:42:05.562Z,2.37
2017-11-28T03:44:37.935Z,2.13
2017-11-28T03:47:04.526Z,2.03
2017-11-28T03:49:31.103Z,3.03
2017-11-28T03:51:57.771Z,2.30
2017-11-28T03:54:24.359Z,2.40
2017-11-28T03:56:50.930Z,2.90
2017-11-28T03:59:17.518Z,2.50
2017-11-28T04:01:44.140Z,3.23
2017-11-28T04:04:10.912Z,4.20
2017-11-28T04:06:37.514Z,3.63
2017-11-28T04:09:04.114Z,1.87
2017-11-28T04:11:30.696Z,1.83
2017-11-28T04:13:57.308Z,2.33
2017-11-28T04:16:24.060Z,1.90
2017-11-28T04:18:51.042Z,2.23
2017-11-28T04:21:17.965Z,2.17
2017-11-28T04:23:44.635Z,2.07
2017-11-28T04:26:11.320Z,2.10
2017-11-28T04:28:37.918Z,2.50
2017-11-28T04:31:04.486Z,1.97
2017-11-28T04:33:31.066Z,2.10
2017-11-28T04:35:57.677Z,2.07
2017-11-28T04:38:24.250Z,1.97
2017-11-28T04:40:50.822Z,1.80
2017-11-28T04:43:17.408Z,1.50
2017-11-28T04:45:43.986Z,2.60
2017-11-28T04:48:10.586Z,1.93
2017-11-28T04:50:37.155Z,1.60
2017-11-28T04:53:03.728Z,1.80
2017-11-28T04:55:30.844Z,1.73
2017-11-28T04:57:57.926Z,1.73
2017-11-28T05:00:24.629Z,2.00
2017-11-28T05:02:51.688Z,2.70
2017-11-28T05:05:18.541Z,2.77
2017-11-28T05:07:45.789Z,1.77
2017-11-28T05:10:12.359Z,1.93
2017-11-28T05:12:38.955Z,2.07
2017-11-28T05:15:05.526Z,3.60
2017-11-28T05:17:32.115Z,3.10
2017-11-28T05:19:58.699Z,1.80
2017-11-28T05:22:25.273Z,4.87
2017-11-28T05:24:51.850Z,3.87
2017-11-28T05:27:18.435Z,5.50
2017-11-28T05:29:45.018Z,3.00
2017-11-28T05:32:11.598Z,2.70
2017-11-28T05:34:38.249Z,3.07
2017-11-28T05:37:04.825Z,3.20
2017-11-28T05:39:31.398Z,4.50
2017-11-28T05:41:57.997Z,3.60
2017-11-28T05:44:24.578Z,10.10
2017-11-28T05:46:51.151Z,5.17
2017-11-28T05:49:17.734Z,3.10
2017-11-28T05:51:44.324Z,4.90
2017-11-28T05:54:10.893Z,4.17
2017-11-28T05:56:37.501Z,5.17
2017-11-28T05:59:04.078Z,6.63
2017-11-28T06:01:30.658Z,8.87
2017-11-28T06:03:57.261Z,10.73
2017-11-28T06:06:23.843Z,12.00
2017-11-28T06:08:50.934Z,7.73
2017-11-28T06:11:17.534Z,8.23
2017-11-28T06:13:44.129Z,3.83
2017-11-28T06:16:10.702Z,4.00
2017-11-28T06:18:37.290Z,3.13
2017-11-28T06:21:03.870Z,3.93
2017-11-28T06:23:30.465Z,3.40
2017-11-28T06:25:57.049Z,2.50
2017-11-28T06:28:23.631Z,6.03
2017-11-28T06:30:50.208Z,2.00
2017-11-28T06:33:16.786Z,2.60
2017-11-28T06:35:43.361Z,3.77
2017-11-28T06:38:09.933Z,3.77
2017-11-28T06:40:36.526Z,5.10
2017-11-28T06:43:03.107Z,2.57
2017-11-28T06:45:29.674Z,1.70
2017-11-28T06:47:56.300Z,1.80
2017-11-28T06:50:22.874Z,3.03
2017-11-28T06:52:49.458Z,5.00
2017-11-28T06:55:16.034Z,2.20
2017-11-28T06:57:42.610Z,2.97
2017-11-28T07:00:09.190Z,3.23
2017-11-28T07:02:50.660Z,1.73
2017-11-28T07:05:17.230Z,2.40
2017-11-28T07:07:43.837Z,4.70
2017-11-28T07:10:10.415Z,4.77
2017-11-28T07:12:36.989Z,3.07
2017-11-28T07:15:03.565Z,2.40
2017-11-28T07:17:30.158Z,2.53
2017-11-28T07:19:56.741Z,3.67
2017-11-28T07:22:23.311Z,4.07
2017-11-28T07:24:49.898Z,3.20
2017-11-28T07:27:16.462Z,6.10
2017-11-28T07:29:43.038Z,3.80
2017-11-28T07:32:09.645Z,3.07
2017-11-28T07:34:36.237Z,3.43
2017-11-28T07:37:02.802Z,5.30
2017-11-28T07:39:29.386Z,5.13
2017-11-28T07:41:55.961Z,2.33
2017-11-28T07:44:22.551Z,2.80
2017-11-28T07:46:49.128Z,3.27
2017-11-28T07:49:15.702Z,3.43
2017-11-28T07:51:42.278Z,3.23
2017-11-28T07:54:08.866Z,3.67
2017-11-28T07:56:35.450Z,3.20
2017-11-28T07:59:02.024Z,4.43
2017-11-28T08:01:28.599Z,3.90
2017-11-28T08:03:55.184Z,4.03
2017-11-28T08:06:21.758Z,2.90
2017-11-28T08:08:48.347Z,3.43
2017-11-28T08:11:14.934Z,3.80
2017-11-28T08:13:41.519Z,5.00
2017-11-28T08:16:08.097Z,2.97
2017-11-28T08:18:34.670Z,3.97
2017-11-28T08:21:01.252Z,3.60
2017-11-28T08:23:27.849Z,6.07
2017-11-28T08:25:54.401Z,5.80
2017-11-28T08:28:20.974Z,8.80
2017-11-28T08:30:47.598Z,5.13
2017-11-28T08:33:14.173Z,4.00
2017-11-28T08:35:40.739Z,4.73
2017-11-28T08:38:07.320Z,3.50
2017-11-28T08:40:33.914Z,5.60
2017-11-28T08:43:00.477Z,3.73
2017-11-28T08:45:27.864Z,4.53
2017-11-28T08:47:55.041Z,7.47
2017-11-28T08:50:22.437Z,4.97
2017-11-28T08:52:49.021Z,7.73
2017-11-28T08:55:15.617Z,5.07
2017-11-28T08:57:42.194Z,6.37
2017-11-28T09:00:08.845Z,5.10
2017-11-28T09:02:35.422Z,10.03
2017-11-28T09:05:02.002Z,11.10
2017-11-28T09:07:28.598Z,8.83
2017-11-28T09:09:55.188Z,5.47
2017-11-28T09:12:21.751Z,5.03
2017-11-28T09:14:48.357Z,7.40
2017-11-28T09:17:14.936Z,5.03
2017-11-28T09:19:41.502Z,7.70
2017-11-28T09:22:08.175Z,10.83
2017-11-28T09:24:34.746Z,6.20
2017-11-28T09:27:01.322Z,5.70
2017-11-28T09:29:27.924Z,7.80
2017-11-28T09:31:54.502Z,7.43
2017-11-28T09:34:21.082Z,18.30
2017-11-28T09:36:47.684Z,8.00
2017-11-28T09:39:14.304Z,10.30
2017-11-28T09:41:40.896Z,9.10
2017-11-28T09:44:07.490Z,10.07
2017-11-28T09:46:34.830Z,9.87
2017-11-28T09:49:01.403Z,9.10
2017-11-28T09:51:28.007Z,11.50
2017-11-28T09:53:54.588Z,11.27
2017-11-28T09:56:21.163Z,9.43
2017-11-28T09:58:47.778Z,13.57
2017-11-28T10:01:14.435Z,13.43
2017-11-28T10:03:41.006Z,11.00
2017-11-28T10:06:07.619Z,11.93
2017-11-28T10:08:34.193Z,10.63
2017-11-28T10:11:00.770Z,16.73
2017-11-28T10:13:27.367Z,16.13
2017-11-28T10:15:53.942Z,13.60
2017-11-28T10:18:20.606Z,16.60
2017-11-28T10:20:47.202Z,14.93
2017-11-28T10:23:13.774Z,14.93
2017-11-28T10:25:40.362Z,13.33
2017-11-28T10:28:06.966Z,10.30
2017-11-28T10:30:33.578Z,12.17
2017-11-28T10:33:00.133Z,16.90
2017-11-28T10:35:27.044Z,14.60
2017-11-28T10:37:53.625Z,13.03
2017-11-28T10:40:20.206Z,10.10
2017-11-28T10:42:46.794Z,11.50
2017-11-28T10:45:13.396Z,13.80
2017-11-28T10:47:39.962Z,15.27
2017-11-28T10:50:06.571Z,18.60
2017-11-28T10:52:33.150Z,10.73
2017-11-28T10:54:59.731Z,14.63
2017-11-28T10:57:26.338Z,9.87
2017-11-28T10:59:52.905Z,8.70
2017-11-28T11:02:19.483Z,8.07
2017-11-28T11:04:46.062Z,7.33
2017-11-28T11:07:12.641Z,11.27
2017-11-28T11:09:39.223Z,10.00
2017-11-28T11:12:05.815Z,12.17
2017-11-28T11:14:32.394Z,11.47
2017-11-28T11:16:59.009Z,7.73
2017-11-28T11:19:25.563Z,6.53
2017-11-28T11:21:52.433Z,7.87
2017-11-28T11:24:19.010Z,8.23
2017-11-28T11:26:45.589Z,7.03
2017-11-28T11:29:12.166Z,4.60
2017-11-28T11:31:39.359Z,3.83
2017-11-28T11:34:05.979Z,5.63
2017-11-28T11:36:32.546Z,7.30
2017-11-28T11:38:59.133Z,9.40
2017-11-28T11:41:25.731Z,9.30
2017-11-28T11:43:52.304Z,7.80
2017-11-28T11:46:18.903Z,8.67
2017-11-28T11:48:45.489Z,13.27
2017-11-28T11:51:12.068Z,5.33
2017-11-28T11:53:38.642Z,10.63
2017-11-28T11:56:05.244Z,9.43
2017-11-28T11:58:31.810Z,8.10
2017-11-28T12:00:58.391Z,7.13
2017-11-28T12:03:24.999Z,6.17
2017-11-28T12:05:51.565Z,8.43
2017-11-28T12:08:18.143Z,7.23
2017-11-28T12:10:44.726Z,4.67
2017-11-28T12:13:11.307Z,5.13
2017-11-28T12:15:37.902Z,7.07
2017-11-28T12:18:04.506Z,4.97
2017-11-28T12:20:31.089Z,9.73
2017-11-28T12:22:57.669Z,8.90
2017-11-28T12:25:24.305Z,9.07
2017-11-28T12:27:50.893Z,8.30
2017-11-28T12:30:17.456Z,6.90
2017-11-28T12:32:44.065Z,7.23
2017-11-28T12:35:10.630Z,9.90
2017-11-28T12:37:37.215Z,5.67
2017-11-28T12:40:03.814Z,5.93
2017-11-28T12:42:30.393Z,2.87
2017-11-28T12:44:56.970Z,5.03
2017-11-28T12:47:23.773Z,5.70
2017-11-28T12:49:50.338Z,4.03
2017-11-28T12:52:16.906Z,7.03
2017-11-28T12:54:43.510Z,5.80
2017-11-28T12:57:10.084Z,4.97
2017-11-28T12:59:36.658Z,5.43
2017-11-28T13:02:03.241Z,7.30
2017-11-28T13:04:29.813Z,3.47
2017-11-28T13:06:56.390Z,7.43
2017-11-28T13:09:22.995Z,6.93
2017-11-28T13:11:49.562Z,5.90
2017-11-28T13:14:16.158Z,5.80
2017-11-28T13:16:42.746Z,5.50
2017-11-28T13:19:09.325Z,7.80
2017-11-28T13:21:35.899Z,4.30
2017-11-28T13:24:02.481Z,8.40
2017-11-28T13:26:29.062Z,4.07
2017-11-28T13:28:55.637Z,2.53
2017-11-28T13:31:22.218Z,2.80
2017-11-28T13:33:48.794Z,4.70
2017-11-28T13:36:15.365Z,2.60
2017-11-28T13:38:42.327Z,5.30
2017-11-28T13:41:08.901Z,2.50
2017-11-28T13:43:35.482Z,3.63
2017-11-28T13:46:02.078Z,4.50
2017-11-28T13:48:28.666Z,5.70
2017-11-28T13:50:55.237Z,4.70
2017-11-28T13:53:21.815Z,4.70
2017-11-28T13:55:48.387Z,3.63
2017-11-28T13:58:14.961Z,4.00
2017-11-28T14:00:41.558Z,5.37
2017-11-28T14:03:08.137Z,5.87
2017-11-28T14:05:34.720Z,7.53
2017-11-28T14:08:01.302Z,8.10
2017-11-28T14:10:27.879Z,4.53
2017-11-28T14:12:54.471Z,3.83
2017-11-28T14:15:21.081Z,5.77
2017-11-28T14:17:47.642Z,3.23
2017-11-28T14:20:14.849Z,4.00
2017-11-28T14:22:59.254Z,2.97
2017-11-28T14:25:27.603Z,4.43
2017-11-28T14:27:55.041Z,3.00
2017-11-28T14:30:37.255Z,2.70
2017-11-28T14:33:03.842Z,2.50
2017-11-28T14:35:32.118Z,5.50
2017-11-28T14:37:58.718Z,4.70
2017-11-28T14:40:25.290Z,5.67
2017-11-28T14:42:57.664Z,2.20
2017-11-28T14:45:39.137Z,11.87
2017-11-28T14:48:05.711Z,5.23
2017-11-28T14:50:38.088Z,3.70
2017-11-28T14:53:04.671Z,8.77
2017-11-28T14:55:35.702Z,5.30
2017-11-28T14:58:02.285Z,4.93
2017-11-28T15:00:34.582Z,4.27
2017-11-28T15:03:06.830Z,2.33
2017-11-28T15:05:52.163Z,6.10
2017-11-28T15:08:24.464Z,3.53
2017-11-28T15:10:53.066Z,2.23
2017-11-28T15:13:40.482Z,2.17
2017-11-28T15:16:12.928Z,4.77
2017-11-28T15:18:45.205Z,3.83
2017-11-28T15:21:12.722Z,10.63
2017-11-28T15:23:39.341Z,3.27
2017-11-28T15:26:21.556Z,2.00
2017-11-28T15:28:50.078Z,4.80
2017-11-28T15:31:16.633Z,6.67
2017-11-28T15:33:43.217Z,2.50
2017-11-28T15:36:09.798Z,3.43
2017-11-28T15:38:36.383Z,2.27
2017-11-28T15:41:02.975Z,2.67
2017-11-28T15:43:29.549Z,5.20
2017-11-28T15:45:56.138Z,4.30
2017-11-28T15:48:22.721Z,2.87
2017-11-28T15:50:49.298Z,3.47
2017-11-28T15:53:15.873Z,2.57
2017-11-28T15:55:42.466Z,2.57
2017-11-28T15:58:09.041Z,1.47
2017-11-28T16:00:35.621Z,3.80
2017-11-28T16:03:02.214Z,3.80
2017-11-28T16:05:28.791Z,2.53
2017-11-28T16:07:55.357Z,4.20
2017-11-28T16:10:21.955Z,3.60
2017-11-28T16:12:48.535Z,1.43
2017-11-28T16:15:15.111Z,3.53
2017-11-28T16:17:41.707Z,1.93
2017-11-28T16:20:08.288Z,1.97
2017-11-28T16:22:34.867Z,3.40
2017-11-28T16:25:01.453Z,3.93
2017-11-28T16:27:28.054Z,1.63
2017-11-28T16:29:54.654Z,2.50
2017-11-28T16:32:21.255Z,1.90
2017-11-28T16:34:47.856Z,1.87
2017-11-28T16:37:14.399Z,2.50
2017-11-28T16:39:41.005Z,2.30
2017-11-28T16:42:07.624Z,3.80
2017-11-28T16:44:34.185Z,3.57
2017-11-28T16:47:00.799Z,3.97
2017-11-28T16:49:27.366Z,3.50
2017-11-28T16:51:53.959Z,6.03
2017-11-28T16:54:20.542Z,6.80
2017-11-28T16:56:47.119Z,8.50
2017-11-28T16:59:13.699Z,11.20
2017-11-28T17:01:40.301Z,11.30
2017-11-28T17:04:06.879Z,9.67
2017-11-28T17:06:33.459Z,8.90
2017-11-28T17:09:00.046Z,6.73
2017-11-28T17:11:26.646Z,7.50
2017-11-28T17:13:53.212Z,6.67
2017-11-28T17:16:19.810Z,5.20
2017-11-28T17:18:46.381Z,4.47
2017-11-28T17:21:12.957Z,2.00
2017-11-28T17:23:39.540Z,1.73
2017-11-28T17:26:06.141Z,2.03
2017-11-28T17:28:32.720Z,2.60
2017-11-28T17:30:59.315Z,2.10
2017-11-28T17:33:25.903Z,4.33
2017-11-28T17:35:52.475Z,2.07
2017-11-28T17:38:19.074Z,2.10
2017-11-28T17:40:45.645Z,3.87
2017-11-28T17:43:12.251Z,3.77
2017-11-28T17:45:38.847Z,2.10
2017-11-28T17:48:05.431Z,2.87
2017-11-28T17:50:32.003Z,1.63
2017-11-28T17:52:58.596Z,1.87
2017-11-28T17:55:25.167Z,2.20
2017-11-28T17:57:51.846Z,2.60
2017-11-28T18:00:18.621Z,3.87
2017-11-28T18:02:45.201Z,5.83
2017-11-28T18:05:11.790Z,2.80
2017-11-28T18:07:38.379Z,2.73
2017-11-28T18:10:04.949Z,3.03
2017-11-28T18:12:31.521Z,2.00
2017-11-28T18:14:58.110Z,2.70
2017-11-28T18:17:24.682Z,4.20
2017-11-28T18:19:51.269Z,3.63
2017-11-28T18:22:17.870Z,3.43
2017-11-28T18:24:44.459Z,4.83
2017-11-28T18:27:11.031Z,4.03
2017-11-28T18:29:37.640Z,2.87
2017-11-28T18:32:04.224Z,3.27
2017-11-28T18:34:30.826Z,3.80
2017-11-28T18:36:57.413Z,5.13
2017-11-28T18:39:24.000Z,4.70
2017-11-28T18:41:50.571Z,3.80
2017-11-28T18:44:17.193Z,2.73
2017-11-28T18:46:43.758Z,2.83
2017-11-28T18:49:10.340Z,2.83
2017-11-28T18:51:36.948Z,6.40
2017-11-28T18:54:03.515Z,3.10
2017-11-28T18:56:30.098Z,3.97
2017-11-28T18:58:56.691Z,3.17
2017-11-28T19:01:23.265Z,3.63
2017-11-28T19:03:49.839Z,3.77
2017-11-28T19:06:16.422Z,3.40
2017-11-28T19:08:42.998Z,6.00
2017-11-28T19:11:09.579Z,4.73
2017-11-28T19:13:36.158Z,4.63
2017-11-28T19:16:02.731Z,4.57
2017-11-28T19:18:29.312Z,5.30
2017-11-28T19:20:55.901Z,5.03
2017-11-28T19:23:22.476Z,7.17
2017-11-28T19:25:49.041Z,4.50
2017-11-28T19:28:15.638Z,4.60
2017-11-28T19:30:42.217Z,5.03
2017-11-28T19:33:08.794Z,6.33
2017-11-28T19:35:35.378Z,4.80
2017-11-28T19:38:01.953Z,4.53
2017-11-28T19:40:28.529Z,7.70
2017-11-28T19:42:55.110Z,7.80
2017-11-28T19:45:21.682Z,8.43
2017-11-28T19:47:48.263Z,14.40
2017-11-28T19:50:14.856Z,8.80
2017-11-28T19:52:41.430Z,7.47
2017-11-28T19:55:08.013Z,11.20
2017-11-28T19:57:34.599Z,19.60
2017-11-28T20:00:01.170Z,14.33
2017-11-28T20:02:27.753Z,14.90
2017-11-28T20:04:54.356Z,17.77
2017-11-28T20:07:20.938Z,11.77
2017-11-28T20:09:47.523Z,10.20
2017-11-28T20:12:14.117Z,11.50
2017-11-28T20:14:40.703Z,13.20
2017-11-28T20:17:07.298Z,9.10
2017-11-28T20:19:33.866Z,9.83
2017-11-28T20:22:00.462Z,9.77
2017-11-28T20:24:27.055Z,10.83
2017-11-28T20:26:53.666Z,8.80
2017-11-28T20:29:20.238Z,6.77
2017-11-28T20:31:46.818Z,7.30
2017-11-28T20:34:13.407Z,5.90
2017-11-28T20:36:39.993Z,7.83
2017-11-28T20:39:06.575Z,6.80
2017-11-28T20:41:33.162Z,5.63
2017-11-28T20:43:59.743Z,9.67
2017-11-28T20:46:26.310Z,7.83
2017-11-28T20:48:52.901Z,5.77
2017-11-28T20:51:19.489Z,9.40
2017-11-28T20:53:46.051Z,7.73
2017-11-28T20:56:12.643Z,5.50
2017-11-28T20:58:39.217Z,8.97
2017-11-28T21:01:05.802Z,6.67
2017-11-28T21:03:32.390Z,8.30
2017-11-28T21:05:58.963Z,9.47
2017-11-28T21:08:25.535Z,9.27
2017-11-28T21:10:53.373Z,8.53
2017-11-28T21:13:19.950Z,6.80
2017-11-28T21:15:46.521Z,6.60
2017-11-28T21:18:13.114Z,5.60
2017-11-28T21:20:39.686Z,7.13
2017-11-28T21:23:06.295Z,6.00
2017-11-28T21:25:32.866Z,4.60
2017-11-28T21:27:59.461Z,6.23
2017-11-28T21:30:26.046Z,5.50
2017-11-28T21:32:52.651Z,10.17
2017-11-28T21:35:19.228Z,5.03
2017-11-28T21:37:46.138Z,11.10
2017-11-28T21:40:12.766Z,5.40
2017-11-28T21:42:39.387Z,10.60
2017-11-28T21:45:05.963Z,6.00
2017-11-28T21:47:32.548Z,6.23
2017-11-28T21:49:59.121Z,7.23
2017-11-28T21:52:25.693Z,6.27
2017-11-28T21:54:52.281Z,9.93
2017-11-28T21:57:18.859Z,4.63
2017-11-28T21:59:45.458Z,5.77
2017-11-28T22:02:12.035Z,4.30
2017-11-28T22:04:38.605Z,4.13
2017-11-28T22:07:05.193Z,6.00
2017-11-28T22:09:31.806Z,5.60
2017-11-28T22:14:25.042Z,6.93
2017-11-28T22:16:51.638Z,8.27
2017-11-28T22:19:18.210Z,9.57
2017-11-28T22:21:44.826Z,12.30
2017-11-28T22:24:11.418Z,9.40
2017-11-28T22:26:38.014Z,7.57
2017-11-28T22:29:04.577Z,7.20
2017-11-28T22:31:31.157Z,8.83
2017-11-28T22:33:57.746Z,7.50
2017-11-28T22:36:24.345Z,10.37
2017-11-28T22:38:50.934Z,7.20
2017-11-28T22:41:17.512Z,13.90
2017-11-28T22:43:44.085Z,8.73
2017-11-28T22:46:10.681Z,10.07
2017-11-28T22:48:37.261Z,7.73
2017-11-28T22:51:03.826Z,7.23
2017-11-28T22:53:30.438Z,10.30
2017-11-28T22:55:57.014Z,12.83
2017-11-28T22:58:23.585Z,6.67
2017-11-28T23:00:50.189Z,6.20
2017-11-28T23:03:16.766Z,7.23
2017-11-28T23:05:43.336Z,6.53
2017-11-28T23:08:09.937Z,7.67
2017-11-28T23:10:36.518Z,7.80
2017-11-28T23:13:03.087Z,7.17
2017-11-28T23:15:29.680Z,7.80
2017-11-28T23:17:56.257Z,6.73
2017-11-28T23:20:22.826Z,7.53
2017-11-28T23:22:49.418Z,10.63
2017-11-28T23:25:16.001Z,7.03
2017-11-28T23:27:42.570Z,6.27
2017-11-28T23:30:09.178Z,8.50
2017-11-28T23:32:35.750Z,8.50
2017-11-28T23:35:02.335Z,8.60
2017-11-28T23:37:28.906Z,9.80
2017-11-28T23:39:55.482Z,7.80
2017-11-28T23:42:22.059Z,8.30
2017-11-28T23:44:48.638Z,8.50
2017-11-28T23:47:15.214Z,9.30
2017-11-28T23:49:41.798Z,10.17
2017-11-28T23:52:08.391Z,10.23
2017-11-28T23:54:34.969Z,10.63
2017-11-28T23:57:01.551Z,10.80
2017-11-28T23:59:28.130Z,8.87
